createdAt,value
2022-09-24T00:00:00.435Z,256.20
2022-09-24T00:01:00.459Z,252.10
2022-09-24T00:02:00.573Z,260.80
2022-09-24T00:03:00.539Z,254.80
2022-09-24T00:04:00.574Z,235.70
2022-09-24T00:05:00.371Z,248.10
2022-09-24T00:06:00.396Z,245.70
2022-09-24T00:07:00.354Z,252.10
2022-09-24T00:08:00.341Z,249.70
2022-09-24T00:09:00.337Z,241.70
2022-09-24T00:10:00.318Z,250.10
2022-09-24T00:11:00.348Z,239.40
2022-09-24T00:12:00.292Z,246.20
2022-09-24T00:13:00.261Z,243.50
2022-09-24T00:14:00.292Z,247.00
2022-09-24T00:15:00.244Z,243.70
2022-09-24T00:16:00.296Z,239.00
2022-09-24T00:17:00.218Z,231.50
2022-09-24T00:18:00.212Z,237.90
2022-09-24T00:19:00.202Z,240.60
2022-09-24T00:20:00.208Z,238.20
2022-09-24T00:21:00.212Z,240.80
2022-09-24T00:22:00.166Z,221.90
2022-09-24T00:23:00.174Z,229.50
2022-09-24T00:24:00.154Z,225.90
2022-09-24T00:25:00.154Z,221.60
2022-09-24T00:26:00.191Z,221.30
2022-09-24T00:27:00.133Z,228.10
2022-09-24T00:28:00.119Z,215.00
2022-09-24T00:29:00.092Z,220.40
2022-09-24T00:30:00.109Z,219.50
2022-09-24T00:31:00.159Z,220.90
2022-09-24T00:32:00.075Z,216.00
2022-09-24T00:33:00.075Z,211.10
2022-09-24T00:34:00.057Z,215.20
2022-09-24T00:35:00.030Z,218.50
2022-09-24T00:36:00.052Z,211.90
2022-09-24T00:37:00.036Z,207.90
2022-09-24T00:37:59.995Z,210.60
2022-09-24T00:39:00.003Z,214.20
2022-09-24T00:39:59.973Z,206.70
2022-09-24T00:41:00.005Z,207.20
2022-09-24T00:41:59.955Z,213.10
2022-09-24T00:42:59.938Z,204.10
2022-09-24T00:43:59.930Z,205.00
2022-09-24T00:44:59.916Z,199.20
2022-09-24T00:45:59.938Z,200.00
2022-09-24T00:46:59.955Z,193.10
2022-09-24T00:47:59.881Z,188.50
2022-09-24T00:48:59.859Z,193.40
2022-09-24T00:49:59.845Z,194.30
2022-09-24T00:50:59.883Z,197.90
2022-09-24T00:51:59.830Z,193.20
2022-09-24T00:52:59.839Z,193.00
2022-09-24T00:53:59.816Z,189.30
2022-09-24T00:54:59.817Z,193.40
2022-09-24T00:55:59.838Z,200.70
2022-09-24T00:56:59.793Z,194.80
2022-09-24T00:57:59.776Z,195.40
2022-09-24T00:58:59.756Z,193.10
2022-09-24T00:59:59.745Z,199.10
2022-09-24T01:00:59.835Z,197.70
2022-09-24T01:01:59.755Z,205.30
2022-09-24T01:02:59.709Z,199.80
2022-09-24T01:03:59.717Z,197.10
2022-09-24T01:04:59.712Z,204.70
2022-09-24T01:05:59.724Z,209.20
2022-09-24T01:06:59.682Z,212.40
2022-09-24T01:07:59.645Z,206.60
2022-09-24T01:08:59.643Z,211.60
2022-09-24T01:09:59.630Z,218.00
2022-09-24T01:10:59.675Z,213.80
2022-09-24T01:11:59.608Z,213.10
2022-09-24T01:12:59.614Z,222.00
2022-09-24T01:13:59.585Z,216.80
2022-09-24T01:14:59.572Z,214.30
2022-09-24T01:15:59.625Z,224.30
2022-09-24T01:16:59.552Z,216.20
2022-09-24T01:17:59.583Z,208.20
2022-09-24T01:18:59.540Z,222.90
2022-09-24T01:19:59.497Z,218.00
2022-09-24T01:20:59.535Z,216.90
2022-09-24T01:21:59.486Z,222.80
2022-09-24T01:22:59.476Z,221.60
2022-09-24T01:23:59.472Z,226.00
2022-09-24T01:24:59.464Z,233.30
2022-09-24T01:25:59.495Z,229.30
2022-09-24T01:26:59.438Z,233.40
2022-09-24T01:27:59.442Z,234.40
2022-09-24T01:28:59.423Z,237.50
2022-09-24T01:29:59.406Z,243.90
2022-09-24T01:30:59.565Z,254.10
2022-09-24T01:31:59.392Z,251.50
2022-09-24T01:32:59.376Z,258.40
2022-09-24T01:33:59.376Z,257.90
2022-09-24T01:34:59.353Z,265.40
2022-09-24T01:35:59.374Z,273.60
2022-09-24T01:36:59.339Z,266.20
2022-09-24T01:37:59.319Z,267.80
2022-09-24T01:38:59.310Z,279.50
2022-09-24T01:39:59.290Z,275.60
2022-09-24T01:40:59.320Z,276.90
2022-09-24T01:41:59.267Z,287.60
2022-09-24T01:42:59.254Z,285.50
2022-09-24T01:43:59.275Z,287.70
2022-09-24T01:44:59.224Z,288.60
2022-09-24T01:45:59.265Z,290.10
2022-09-24T01:46:59.294Z,293.40
2022-09-24T01:47:59.189Z,290.00
2022-09-24T01:48:59.196Z,294.80
2022-09-24T01:49:59.176Z,291.40
2022-09-24T01:50:59.196Z,301.10
2022-09-24T01:51:59.134Z,296.50
2022-09-24T01:52:59.130Z,293.00
2022-09-24T01:53:59.109Z,296.80
2022-09-24T01:54:59.123Z,301.60
2022-09-24T01:55:59.138Z,300.70
2022-09-24T01:56:59.095Z,307.60
2022-09-24T01:57:59.092Z,308.90
2022-09-24T01:58:59.078Z,300.20
2022-09-24T01:59:59.070Z,310.20
2022-09-24T02:00:59.161Z,303.00
2022-09-24T02:01:59.103Z,306.80
2022-09-24T02:02:59.051Z,307.70
2022-09-24T02:03:59.014Z,304.20
2022-09-24T02:04:58.999Z,310.80
2022-09-24T02:05:59.026Z,303.50
2022-09-24T02:06:58.992Z,309.60
2022-09-24T02:07:58.979Z,305.50
2022-09-24T02:08:58.959Z,300.80
2022-09-24T02:09:58.952Z,311.20
2022-09-24T02:10:58.981Z,305.50
2022-09-24T02:11:58.927Z,303.40
2022-09-24T02:12:58.912Z,306.70
2022-09-24T02:13:58.890Z,301.90
2022-09-24T02:14:58.899Z,302.50
2022-09-24T02:15:58.985Z,307.20
2022-09-24T02:16:58.870Z,302.40
2022-09-24T02:17:58.850Z,309.30
2022-09-24T02:18:58.855Z,305.60
2022-09-24T02:19:58.834Z,303.40
2022-09-24T02:20:58.862Z,305.70
2022-09-24T02:21:58.793Z,308.20
2022-09-24T02:22:58.807Z,309.50
2022-09-24T02:23:58.779Z,303.10
2022-09-24T02:24:58.760Z,309.00
2022-09-24T02:25:58.783Z,304.70
2022-09-24T02:26:58.736Z,308.60
2022-09-24T02:27:58.744Z,306.80
2022-09-24T02:28:58.719Z,309.00
2022-09-24T02:29:58.717Z,310.70
2022-09-24T02:30:58.768Z,313.50
2022-09-24T02:31:58.688Z,313.30
2022-09-24T02:32:58.696Z,313.20
2022-09-24T02:33:58.664Z,310.40
2022-09-24T02:34:58.668Z,321.40
2022-09-24T02:35:58.674Z,313.30
2022-09-24T02:36:58.635Z,319.20
2022-09-24T02:38:01.651Z,314.50
2022-09-24T02:38:59.620Z,322.70
2022-09-24T02:39:58.604Z,318.00
2022-09-24T02:40:58.723Z,319.90
2022-09-24T02:41:58.597Z,321.60
2022-09-24T02:42:58.575Z,317.30
2022-09-24T02:43:58.543Z,328.40
2022-09-24T02:44:58.554Z,328.20
2022-09-24T02:45:58.573Z,325.10
2022-09-24T02:46:58.609Z,325.80
2022-09-24T02:47:58.518Z,325.50
2022-09-24T02:48:58.514Z,329.20
2022-09-24T02:49:58.501Z,328.50
2022-09-24T02:50:58.512Z,325.70
2022-09-24T02:51:58.471Z,332.80
2022-09-24T02:52:58.454Z,327.20
2022-09-24T02:53:58.455Z,330.60
2022-09-24T02:54:58.435Z,330.50
2022-09-24T02:55:58.411Z,325.10
2022-09-24T02:56:58.445Z,325.80
2022-09-24T02:57:58.381Z,329.30
2022-09-24T02:58:58.396Z,321.70
2022-09-24T02:59:58.372Z,316.00
2022-09-24T03:00:58.410Z,324.40
2022-09-24T03:01:58.497Z,319.50
2022-09-24T03:02:58.394Z,317.60
2022-09-24T03:03:58.323Z,315.90
2022-09-24T03:04:58.318Z,319.00
2022-09-24T03:05:58.315Z,310.40
2022-09-24T03:06:58.341Z,315.90
2022-09-24T03:07:58.283Z,315.60
2022-09-24T03:08:58.279Z,307.60
2022-09-24T03:09:58.266Z,311.50
2022-09-24T03:10:58.265Z,301.60
2022-09-24T03:11:58.280Z,296.40
2022-09-24T03:12:58.247Z,298.50
2022-09-24T03:13:58.216Z,296.40
2022-09-24T03:14:58.218Z,290.60
2022-09-24T03:15:58.241Z,289.70
2022-09-24T03:16:58.224Z,290.00
2022-09-24T03:17:58.175Z,284.40
2022-09-24T03:18:58.163Z,283.00
2022-09-24T03:19:58.155Z,282.20
2022-09-24T03:20:58.138Z,275.70
2022-09-24T03:21:58.149Z,264.10
2022-09-24T03:22:58.119Z,271.40
2022-09-24T03:23:58.112Z,265.90
2022-09-24T03:24:58.088Z,259.60
2022-09-24T03:25:59.014Z,258.80
2022-09-24T03:26:58.097Z,260.00
2022-09-24T03:27:58.033Z,254.60
2022-09-24T03:28:58.027Z,256.20
2022-09-24T03:29:58.019Z,251.60
2022-09-24T03:30:58.049Z,254.80
2022-09-24T03:31:58.153Z,251.70
2022-09-24T03:32:58.016Z,252.80
2022-09-24T03:33:57.993Z,242.80
2022-09-24T03:34:57.971Z,246.90
2022-09-24T03:35:57.947Z,241.10
2022-09-24T03:36:58.002Z,247.00
2022-09-24T03:37:57.954Z,246.10
2022-09-24T03:38:57.939Z,234.60
2022-09-24T03:39:57.941Z,239.80
2022-09-24T03:40:58.021Z,230.80
2022-09-24T03:41:57.937Z,223.30
2022-09-24T03:42:57.896Z,217.00
2022-09-24T03:43:57.873Z,218.60
2022-09-24T03:44:57.878Z,203.10
2022-09-24T03:45:57.845Z,194.10
2022-09-24T03:46:57.950Z,180.80
2022-09-24T03:47:57.835Z,186.80
2022-09-24T03:48:57.812Z,194.10
2022-09-24T03:49:57.812Z,205.70
2022-09-24T03:50:57.799Z,211.30
2022-09-24T03:51:57.822Z,223.00
2022-09-24T03:52:57.783Z,229.30
2022-09-24T03:53:57.775Z,231.90
2022-09-24T03:54:57.758Z,231.40
2022-09-24T03:55:57.742Z,236.40
2022-09-24T03:56:57.753Z,236.20
2022-09-24T03:57:57.711Z,251.40
2022-09-24T03:58:57.699Z,251.80
2022-09-24T03:59:57.675Z,252.80
2022-09-24T04:00:57.676Z,252.40
2022-09-24T04:01:57.758Z,253.60
2022-09-24T04:02:57.701Z,254.30
2022-09-24T04:03:57.654Z,266.30
2022-09-24T04:04:57.637Z,261.70
2022-09-24T04:05:57.626Z,269.00
2022-09-24T04:06:57.662Z,273.10
2022-09-24T04:07:57.611Z,270.40
2022-09-24T04:08:57.607Z,276.50
2022-09-24T04:09:57.587Z,274.70
2022-09-24T04:10:57.566Z,265.00
2022-09-24T04:11:57.587Z,272.10
2022-09-24T04:12:57.537Z,266.50
2022-09-24T04:13:57.531Z,262.00
2022-09-24T04:14:57.523Z,266.00
2022-09-24T04:15:57.529Z,271.40
2022-09-24T04:16:57.570Z,268.80
2022-09-24T04:17:57.495Z,271.80
2022-09-24T04:18:57.475Z,263.60
2022-09-24T04:19:57.452Z,271.70
2022-09-24T04:20:57.442Z,273.40
2022-09-24T04:21:57.436Z,265.30
2022-09-24T04:22:57.469Z,266.60
2022-09-24T04:23:57.419Z,265.30
2022-09-24T04:24:57.404Z,270.10
2022-09-24T04:25:57.391Z,260.80
2022-09-24T04:26:57.381Z,261.90
2022-09-24T04:27:57.401Z,267.90
2022-09-24T04:28:57.369Z,268.40
2022-09-24T04:29:57.344Z,274.00
2022-09-24T04:30:57.429Z,264.70
2022-09-24T04:31:57.310Z,257.10
2022-09-24T04:32:57.345Z,253.70
2022-09-24T04:33:57.290Z,259.70
2022-09-24T04:34:57.293Z,263.60
2022-09-24T04:35:57.290Z,262.00
2022-09-24T04:36:57.274Z,261.70
2022-09-24T04:37:57.289Z,266.20
2022-09-24T04:38:57.248Z,269.10
2022-09-24T04:39:57.243Z,265.50
2022-09-24T04:40:57.258Z,259.60
2022-09-24T04:41:57.200Z,266.60
2022-09-24T04:42:57.235Z,269.70
2022-09-24T04:43:57.196Z,270.70
2022-09-24T04:44:57.183Z,260.70
2022-09-24T04:45:57.161Z,260.50
2022-09-24T04:46:57.250Z,265.40
2022-09-24T04:47:57.178Z,263.30
2022-09-24T04:48:57.128Z,267.70
2022-09-24T04:49:57.112Z,263.30
2022-09-24T04:50:57.113Z,269.20
2022-09-24T04:51:57.105Z,271.90
2022-09-24T04:52:57.122Z,272.90
2022-09-24T04:53:57.095Z,265.00
2022-09-24T04:54:57.058Z,271.30
2022-09-24T04:55:57.052Z,270.90
2022-09-24T04:56:57.038Z,263.30
2022-09-24T04:57:57.069Z,269.40
2022-09-24T04:58:57.015Z,267.80
2022-09-24T04:59:57.015Z,266.80
2022-09-24T05:00:56.998Z,262.60
2022-09-24T05:01:57.123Z,260.60
2022-09-24T05:02:57.047Z,261.40
2022-09-24T05:03:56.967Z,266.70
2022-09-24T05:04:56.946Z,262.00
2022-09-24T05:05:56.932Z,264.70
2022-09-24T05:06:56.921Z,257.40
2022-09-24T05:07:56.997Z,259.70
2022-09-24T05:08:56.927Z,259.60
2022-09-24T05:09:56.899Z,262.50
2022-09-24T05:10:56.873Z,261.70
2022-09-24T05:11:56.892Z,258.10
2022-09-24T05:12:56.914Z,272.60
2022-09-24T05:13:56.870Z,262.10
2022-09-24T05:14:56.836Z,273.20
2022-09-24T05:15:56.873Z,275.00
2022-09-24T05:16:56.796Z,273.30
2022-09-24T05:17:56.811Z,280.10
2022-09-24T05:18:56.824Z,275.20
2022-09-24T05:19:56.782Z,284.80
2022-09-24T05:20:56.772Z,274.90
2022-09-24T05:21:56.846Z,278.00
2022-09-24T05:22:56.744Z,273.20
2022-09-24T05:23:56.760Z,271.20
2022-09-24T05:24:56.723Z,259.30
2022-09-24T05:25:56.722Z,253.30
2022-09-24T05:26:56.685Z,241.90
2022-09-24T05:27:56.735Z,233.90
2022-09-24T05:28:56.671Z,222.90
2022-09-24T05:29:56.681Z,208.00
2022-09-24T05:30:56.720Z,196.80
2022-09-24T05:31:56.642Z,187.40
2022-09-24T05:32:56.675Z,179.30
2022-09-24T05:33:56.623Z,177.30
2022-09-24T05:34:56.618Z,182.20
2022-09-24T05:35:56.591Z,177.80
2022-09-24T05:36:56.574Z,186.50
2022-09-24T05:37:56.605Z,195.00
2022-09-24T05:38:56.588Z,202.00
2022-09-24T05:39:56.565Z,203.20
2022-09-24T05:40:56.634Z,191.50
2022-09-24T05:41:56.543Z,186.20
2022-09-24T05:42:56.564Z,172.40
2022-09-24T05:43:56.524Z,165.20
2022-09-24T05:44:56.502Z,160.50
2022-09-24T05:45:56.507Z,155.20
2022-09-24T05:46:56.559Z,148.20
2022-09-24T05:47:56.521Z,146.30
2022-09-24T05:48:56.468Z,146.90
2022-09-24T05:49:56.460Z,147.80
2022-09-24T05:50:56.438Z,141.10
2022-09-24T05:51:56.427Z,139.40
2022-09-24T05:52:56.449Z,136.70
2022-09-24T05:53:56.393Z,138.20
2022-09-24T05:54:56.386Z,133.30
2022-09-24T05:55:56.374Z,135.50
2022-09-24T05:56:56.364Z,131.60
2022-09-24T05:57:56.348Z,134.00
2022-09-24T05:58:56.370Z,138.50
2022-09-24T05:59:56.319Z,143.30
2022-09-24T06:00:56.322Z,147.70
2022-09-24T06:01:56.385Z,149.40
2022-09-24T06:02:56.354Z,160.60
2022-09-24T06:03:56.314Z,163.50
2022-09-24T06:04:56.264Z,168.70
2022-09-24T06:05:56.264Z,170.30
2022-09-24T06:06:56.251Z,174.20
2022-09-24T06:07:56.239Z,181.10
2022-09-24T06:08:56.257Z,185.60
2022-09-24T06:09:56.205Z,181.10
2022-09-24T06:10:56.203Z,176.70
2022-09-24T06:11:56.190Z,173.80
2022-09-24T06:12:56.180Z,167.20
2022-09-24T06:13:56.214Z,164.00
2022-09-24T06:14:56.151Z,154.20
2022-09-24T06:15:56.205Z,153.90
2022-09-24T06:16:56.120Z,155.90
2022-09-24T06:17:56.129Z,164.30
2022-09-24T06:18:56.141Z,164.90
2022-09-24T06:19:56.107Z,163.20
2022-09-24T06:20:56.090Z,154.30
2022-09-24T06:21:56.072Z,160.70
2022-09-24T06:22:56.100Z,170.60
2022-09-24T06:23:56.053Z,181.50
2022-09-24T06:24:56.046Z,166.20
2022-09-24T06:25:56.040Z,161.10
2022-09-24T06:26:56.009Z,166.40
2022-09-24T06:27:56.071Z,173.20
2022-09-24T06:28:59.530Z,190.60
2022-09-24T06:29:56.992Z,221.00
2022-09-24T06:30:56.018Z,270.40
2022-09-24T06:31:55.994Z,269.50
2022-09-24T06:32:55.954Z,269.60
2022-09-24T06:33:55.987Z,292.00
2022-09-24T06:34:59.177Z,327.40
2022-09-24T06:35:55.930Z,373.40
2022-09-24T06:36:55.901Z,410.40
2022-09-24T06:37:55.891Z,424.80
2022-09-24T06:38:55.915Z,446.70
2022-09-24T06:39:55.874Z,457.10
2022-09-24T06:40:55.909Z,449.10
2022-09-24T06:41:55.847Z,397.80
2022-09-24T06:42:55.832Z,385.40
2022-09-24T06:43:55.863Z,379.60
2022-09-24T06:44:55.818Z,388.50
2022-09-24T06:45:55.811Z,407.60
2022-09-24T06:46:55.843Z,418.00
2022-09-24T06:47:55.777Z,420.70
2022-09-24T06:48:55.800Z,394.90
2022-09-24T06:49:55.763Z,386.50
2022-09-24T06:50:55.747Z,351.40
2022-09-24T06:51:55.743Z,322.70
2022-09-24T06:52:55.716Z,269.90
2022-09-24T06:53:55.743Z,224.70
2022-09-24T06:54:55.695Z,201.40
2022-09-24T06:55:55.700Z,202.40
2022-09-24T06:56:55.687Z,187.70
2022-09-24T06:57:55.717Z,184.50
2022-09-24T06:58:55.652Z,179.60
2022-09-24T06:59:55.656Z,166.20
2022-09-24T07:00:55.672Z,182.20
2022-09-24T07:01:55.673Z,191.50
2022-09-24T07:02:55.603Z,205.50
2022-09-24T07:03:55.638Z,225.70
2022-09-24T07:04:55.585Z,236.40
2022-09-24T07:05:55.584Z,261.50
2022-09-24T07:06:55.554Z,259.10
2022-09-24T07:07:55.562Z,276.30
2022-09-24T07:08:55.593Z,264.30
2022-09-24T07:09:55.530Z,273.20
2022-09-24T07:10:55.525Z,268.20
2022-09-24T07:11:55.513Z,206.40
2022-09-24T07:12:55.518Z,243.40
2022-09-24T07:13:55.522Z,166.20
2022-09-24T07:14:55.465Z,174.80
2022-09-24T07:15:55.489Z,149.80
2022-09-24T07:16:55.467Z,138.30
2022-09-24T07:17:55.474Z,126.10
2022-09-24T07:18:55.468Z,114.80
2022-09-24T07:19:55.446Z,136.00
2022-09-24T07:20:55.407Z,123.40
2022-09-24T07:21:55.401Z,75.90
2022-09-24T07:22:55.424Z,103.50
2022-09-24T07:23:58.611Z,87.10
2022-09-24T07:24:55.360Z,115.10
2022-09-24T07:25:55.357Z,52.20
2022-09-24T07:26:55.336Z,58.40
2022-09-24T07:27:55.367Z,126.10
2022-09-24T07:28:55.313Z,51.80
2022-09-24T07:29:55.311Z,21.00
2022-09-24T07:30:55.357Z,23.20
2022-09-24T07:31:55.286Z,22.30
2022-09-24T07:32:55.316Z,32.50
2022-09-24T07:33:55.258Z,29.00
2022-09-24T07:34:55.248Z,48.20
2022-09-24T07:35:55.243Z,56.30
2022-09-24T07:36:55.217Z,26.00
2022-09-24T07:37:55.259Z,244.20
2022-09-24T07:38:55.199Z,736.40
2022-09-24T07:39:55.218Z,493.90
2022-09-24T07:40:55.237Z,895.30
2022-09-24T07:41:55.168Z,999.90
2022-09-24T07:42:55.212Z,999.90
2022-09-24T07:43:55.151Z,999.90
2022-09-24T07:44:55.128Z,999.90
2022-09-24T07:45:55.128Z,999.90
2022-09-24T07:46:55.164Z,999.90
2022-09-24T07:47:55.131Z,999.90
2022-09-24T07:48:55.077Z,362.90
2022-09-24T07:49:55.088Z,999.90
2022-09-24T07:50:55.059Z,999.90
2022-09-24T07:51:55.074Z,999.90
2022-09-24T07:52:55.043Z,999.90
2022-09-24T07:53:55.058Z,999.90
2022-09-24T07:54:55.020Z,999.90
2022-09-24T07:55:55.018Z,999.90
2022-09-24T07:56:54.999Z,999.90
2022-09-24T07:57:54.994Z,999.90
2022-09-24T07:58:55.014Z,999.90
2022-09-24T07:59:54.968Z,999.90
2022-09-24T08:00:54.948Z,999.90
2022-09-24T08:01:54.994Z,999.90
2022-09-24T08:02:54.976Z,999.90
2022-09-24T08:03:55.003Z,999.90
2022-09-24T08:04:54.912Z,999.90
2022-09-24T08:05:54.897Z,999.90
2022-09-24T08:06:54.878Z,999.90
2022-09-24T08:07:54.880Z,999.90
2022-09-24T08:08:54.895Z,999.90
2022-09-24T08:09:54.863Z,999.90
2022-09-24T08:10:54.849Z,999.90
2022-09-24T08:11:54.843Z,999.90
2022-09-24T08:12:54.808Z,999.90
2022-09-24T08:13:54.846Z,999.90
2022-09-24T08:14:54.788Z,999.90
2022-09-24T08:15:54.828Z,999.90
2022-09-24T08:16:54.778Z,999.90
2022-09-24T08:17:54.775Z,999.90
2022-09-24T08:18:54.793Z,999.90
2022-09-24T08:19:54.760Z,999.90
2022-09-24T08:20:54.725Z,999.90
2022-09-24T08:21:54.705Z,999.90
2022-09-24T08:22:54.697Z,999.90
2022-09-24T08:23:54.728Z,999.90
2022-09-24T08:24:54.685Z,999.90
2022-09-24T08:25:54.687Z,999.90
2022-09-24T08:26:54.652Z,999.90
2022-09-24T08:27:54.649Z,999.90
2022-09-24T08:28:54.675Z,999.90
2022-09-24T08:29:54.618Z,999.90
2022-09-24T08:30:54.656Z,999.90
2022-09-24T08:31:54.601Z,999.90
2022-09-24T08:32:54.587Z,999.90
2022-09-24T08:33:54.621Z,999.90
2022-09-24T08:34:54.589Z,999.90
2022-09-24T08:35:54.563Z,679.10
2022-09-24T08:36:54.539Z,23.00
2022-09-24T08:37:54.544Z,70.30
2022-09-24T08:38:54.567Z,13.60
2022-09-24T08:39:54.514Z,14.70
2022-09-24T08:40:54.546Z,9.60
2022-09-24T08:41:54.493Z,9.00
2022-09-24T08:42:54.475Z,8.20
2022-09-24T08:43:54.498Z,7.70
2022-09-24T08:44:54.450Z,9.40
2022-09-24T08:45:54.438Z,10.40
2022-09-24T08:46:54.496Z,10.50
2022-09-24T08:47:54.451Z,9.00
2022-09-24T08:48:54.448Z,9.60
2022-09-24T08:49:54.398Z,8.90
2022-09-24T08:50:54.386Z,9.60
2022-09-24T08:51:54.384Z,9.40
2022-09-24T08:52:54.372Z,8.20
2022-09-24T08:53:54.400Z,8.40
2022-09-24T08:54:54.335Z,8.90
2022-09-24T08:55:54.333Z,10.30
2022-09-24T08:56:54.315Z,9.50
2022-09-24T08:57:54.304Z,9.60
2022-09-24T08:58:54.335Z,8.00
2022-09-24T08:59:54.294Z,7.40
2022-09-24T09:00:54.269Z,8.40
2022-09-24T09:01:54.392Z,8.20
2022-09-24T09:02:54.300Z,8.70
2022-09-24T09:03:54.246Z,8.10
2022-09-24T09:04:54.266Z,9.20
2022-09-24T09:05:54.219Z,9.30
2022-09-24T09:06:54.204Z,9.00
2022-09-24T09:07:54.181Z,9.60
2022-09-24T09:09:06.877Z,8.90
2022-09-24T09:09:55.165Z,7.50
2022-09-24T09:10:54.164Z,7.10
2022-09-24T09:11:54.160Z,7.30
2022-09-24T09:12:54.145Z,7.80
2022-09-24T09:13:54.173Z,7.60
2022-09-24T09:14:54.108Z,7.10
2022-09-24T09:15:54.180Z,6.70
2022-09-24T09:16:54.093Z,7.00
2022-09-24T09:17:54.085Z,7.70
2022-09-24T09:18:54.065Z,8.80
2022-09-24T09:19:54.098Z,8.40
2022-09-24T09:20:54.048Z,8.30
2022-09-24T09:21:54.045Z,7.80
2022-09-24T09:22:54.039Z,8.20
2022-09-24T09:23:54.021Z,7.20
2022-09-24T09:24:54.047Z,7.70
2022-09-24T09:25:53.996Z,7.40
2022-09-24T09:26:54.008Z,8.00
2022-09-24T09:27:53.961Z,8.90
2022-09-24T09:28:53.957Z,8.30
2022-09-24T09:29:53.983Z,8.60
2022-09-24T09:30:53.961Z,9.10
2022-09-24T09:31:56.470Z,9.10
2022-09-24T09:32:53.954Z,8.80
2022-09-24T09:33:53.903Z,8.60
2022-09-24T09:34:53.933Z,9.20
2022-09-24T09:35:53.874Z,8.90
2022-09-24T09:36:53.884Z,8.60
2022-09-24T09:37:53.859Z,8.70
2022-09-24T09:38:53.854Z,8.50
2022-09-24T09:39:53.869Z,9.70
2022-09-24T09:40:53.901Z,9.00
2022-09-24T09:41:53.813Z,8.50
2022-09-24T09:42:53.800Z,9.10
2022-09-24T09:43:53.829Z,8.80
2022-09-24T09:44:53.779Z,8.10
2022-09-24T09:45:53.758Z,8.20
2022-09-24T09:46:53.798Z,8.50
2022-09-24T09:47:53.746Z,8.30
2022-09-24T09:48:53.761Z,8.50
2022-09-24T09:49:53.728Z,8.70
2022-09-24T09:50:53.708Z,8.20
2022-09-24T09:51:53.697Z,7.90
2022-09-24T09:52:53.686Z,8.20
2022-09-24T09:53:53.704Z,7.50
2022-09-24T09:54:53.666Z,7.70
2022-09-24T09:55:53.651Z,8.00
2022-09-24T09:56:53.629Z,8.60
2022-09-24T09:57:53.643Z,8.60
2022-09-24T09:58:53.653Z,7.90
2022-09-24T09:59:53.604Z,8.10
2022-09-24T10:00:53.598Z,8.30
2022-09-24T10:01:53.634Z,7.80
2022-09-24T10:02:53.715Z,8.20
2022-09-24T10:03:53.549Z,9.10
2022-09-24T10:04:53.579Z,8.10
2022-09-24T10:05:53.525Z,7.80
2022-09-24T10:06:53.544Z,7.70
2022-09-24T10:07:53.516Z,8.60
2022-09-24T10:08:53.537Z,8.80
2022-09-24T10:09:53.486Z,8.60
2022-09-24T10:10:53.488Z,7.70
2022-09-24T10:11:53.467Z,7.90
2022-09-24T10:12:53.458Z,7.70
2022-09-24T10:13:53.500Z,8.20
2022-09-24T10:14:53.440Z,7.80
2022-09-24T10:15:53.494Z,8.10
2022-09-24T10:16:53.411Z,8.00
2022-09-24T10:17:53.408Z,7.70
2022-09-24T10:18:53.455Z,8.00
2022-09-24T10:19:53.379Z,7.80
2022-09-24T10:20:53.369Z,7.90
2022-09-24T10:21:53.359Z,7.50
2022-09-24T10:22:53.366Z,8.00
2022-09-24T10:23:53.380Z,8.20
2022-09-24T10:24:53.326Z,6.90
2022-09-24T10:25:53.313Z,7.10
2022-09-24T10:26:53.301Z,7.60
2022-09-24T10:27:53.303Z,7.90
2022-09-24T10:28:53.281Z,7.30
2022-09-24T10:29:53.302Z,7.00
2022-09-24T10:30:53.316Z,7.40
2022-09-24T10:31:53.261Z,8.70
2022-09-24T10:32:53.243Z,7.90
2022-09-24T10:33:53.268Z,8.20
2022-09-24T10:34:53.203Z,8.60
2022-09-24T10:35:53.194Z,9.30
2022-09-24T10:36:53.180Z,9.30
2022-09-24T10:37:53.178Z,9.10
2022-09-24T10:38:53.207Z,8.50
2022-09-24T10:39:53.157Z,7.80
2022-09-24T10:40:53.203Z,7.70
2022-09-24T10:41:53.145Z,8.20
2022-09-24T10:42:53.137Z,8.00
2022-09-24T10:43:53.265Z,8.50
2022-09-24T10:44:53.138Z,9.60
2022-09-24T10:45:53.085Z,9.60
2022-09-24T10:46:53.139Z,8.40
2022-09-24T10:47:53.065Z,8.40
2022-09-24T10:48:53.064Z,7.90
2022-09-24T10:49:53.091Z,7.40
2022-09-24T10:50:53.031Z,7.40
2022-09-24T10:51:53.030Z,7.50
2022-09-24T10:52:53.017Z,7.20
2022-09-24T10:53:53.000Z,7.10
2022-09-24T10:54:53.031Z,7.60
2022-09-24T10:55:52.984Z,8.00
2022-09-24T10:56:52.970Z,7.70
2022-09-24T10:57:52.957Z,9.90
2022-09-24T10:58:52.957Z,9.90
2022-09-24T10:59:52.975Z,9.10
2022-09-24T11:00:52.938Z,7.70
2022-09-24T11:01:53.010Z,8.30
2022-09-24T11:02:52.934Z,8.20
2022-09-24T11:03:52.936Z,7.50
2022-09-24T11:04:52.919Z,9.10
2022-09-24T11:05:52.879Z,9.20
2022-09-24T11:06:52.856Z,8.70
2022-09-24T11:07:52.847Z,9.00
2022-09-24T11:08:52.834Z,8.30
2022-09-24T11:09:52.858Z,7.20
2022-09-24T11:10:52.810Z,7.20
2022-09-24T11:11:52.810Z,7.00
2022-09-24T11:12:52.792Z,7.20
2022-09-24T11:13:52.786Z,7.70
2022-09-24T11:14:52.813Z,7.10
2022-09-24T11:15:52.821Z,7.10
2022-09-24T11:16:52.754Z,7.10
2022-09-24T11:17:52.743Z,7.90
2022-09-24T11:18:52.773Z,8.40
2022-09-24T11:19:52.720Z,7.90
2022-09-24T11:20:52.714Z,8.10
2022-09-24T11:21:52.694Z,7.90
2022-09-24T11:22:52.713Z,8.10
2022-09-24T11:23:52.716Z,6.60
2022-09-24T11:24:52.666Z,7.30
2022-09-24T11:25:52.645Z,6.90
2022-09-24T11:26:52.661Z,8.10
2022-09-24T11:27:52.624Z,7.40
2022-09-24T11:28:52.664Z,7.50
2022-09-24T11:29:52.607Z,7.40
2022-09-24T11:30:52.683Z,7.70
2022-09-24T11:31:52.574Z,7.10
2022-09-24T11:32:52.576Z,6.30
2022-09-24T11:33:52.570Z,7.20
2022-09-24T11:34:52.593Z,7.70
2022-09-24T11:35:52.543Z,7.20
2022-09-24T11:36:52.539Z,7.00
2022-09-24T11:37:52.534Z,6.80
2022-09-24T11:38:52.517Z,7.30
2022-09-24T11:39:52.529Z,6.90
2022-09-24T11:40:52.517Z,6.50
2022-09-24T11:41:52.464Z,7.00
2022-09-24T11:42:52.456Z,6.90
2022-09-24T11:43:52.492Z,7.20
2022-09-24T11:44:52.441Z,6.80
2022-09-24T11:45:52.430Z,6.60
2022-09-24T11:46:52.449Z,6.90
2022-09-24T11:47:52.413Z,6.90
2022-09-24T11:48:52.477Z,6.70
2022-09-24T11:49:52.376Z,6.60
2022-09-24T11:50:52.383Z,6.40
2022-09-24T11:51:52.367Z,6.80
2022-09-24T11:52:52.363Z,7.00
2022-09-24T11:53:52.388Z,7.90
2022-09-24T11:54:52.348Z,6.70
2022-09-24T11:55:52.335Z,6.60
2022-09-24T11:56:52.318Z,6.50
2022-09-24T11:57:52.313Z,6.20
2022-09-24T11:58:52.342Z,6.80
2022-09-24T11:59:52.285Z,6.70
2022-09-24T12:00:52.267Z,6.60
2022-09-24T12:01:52.342Z,6.00
2022-09-24T12:02:52.303Z,6.20
2022-09-24T12:03:52.282Z,5.80
2022-09-24T12:04:52.228Z,6.10
2022-09-24T12:05:52.217Z,5.90
2022-09-24T12:06:52.219Z,6.30
2022-09-24T12:07:52.196Z,6.70
2022-09-24T12:08:52.219Z,6.00
2022-09-24T12:09:52.165Z,6.50
2022-09-24T12:10:52.173Z,6.20
2022-09-24T12:11:52.149Z,6.20
2022-09-24T12:12:52.138Z,6.40
2022-09-24T12:13:52.187Z,6.20
2022-09-24T12:14:52.132Z,6.20
2022-09-24T12:15:52.141Z,6.00
2022-09-24T12:16:52.095Z,5.80
2022-09-24T12:17:52.075Z,6.10
2022-09-24T12:18:52.110Z,6.10
2022-09-24T12:19:52.058Z,6.20
2022-09-24T12:20:52.059Z,6.30
2022-09-24T12:21:52.032Z,6.20
2022-09-24T12:22:52.041Z,6.40
2022-09-24T12:23:52.018Z,6.40
2022-09-24T12:24:52.054Z,6.60
2022-09-24T12:25:51.985Z,6.60
2022-09-24T12:26:51.995Z,6.50
2022-09-24T12:27:51.982Z,6.50
2022-09-24T12:28:51.968Z,6.50
2022-09-24T12:29:51.992Z,6.60
2022-09-24T12:30:52.000Z,6.70
2022-09-24T12:31:51.973Z,6.40
2022-09-24T12:32:51.938Z,6.70
2022-09-24T12:33:51.985Z,6.30
2022-09-24T12:34:51.908Z,6.40
2022-09-24T12:35:51.881Z,6.40
2022-09-24T12:36:56.603Z,6.40
2022-09-24T12:37:52.868Z,6.40
2022-09-24T12:38:51.898Z,6.80
2022-09-24T12:39:51.846Z,6.50
2022-09-24T12:40:51.956Z,6.90
2022-09-24T12:41:51.819Z,6.50
2022-09-24T12:42:51.814Z,6.70
2022-09-24T12:43:51.841Z,6.70